createdAt,value
2022-11-16T08:22:13.991Z,5.12
2022-11-16T08:24:41.062Z,5.22
2022-11-16T08:27:08.213Z,5.24
2022-11-16T08:29:35.045Z,5.26
2022-11-16T08:32:02.956Z,5.27
2022-11-16T08:34:29.943Z,5.27
2022-11-16T08:36:58.972Z,5.26
2022-11-16T08:39:31.337Z,5.26
2022-11-16T08:41:58.255Z,5.26
2022-11-16T08:44:24.785Z,5.26
2022-11-16T08:46:53.036Z,5.25
2022-11-16T08:49:31.382Z,5.24
2022-11-16T08:51:58.087Z,5.22
2022-11-16T08:54:24.710Z,5.20
2022-11-16T08:56:51.368Z,5.20
2022-11-16T08:59:18.205Z,5.20
2022-11-16T09:01:49.492Z,5.19
2022-11-16T09:04:18.013Z,5.22
2022-11-16T09:06:44.757Z,5.22
2022-11-16T09:09:11.321Z,5.24
2022-11-16T09:11:37.925Z,5.27
2022-11-16T09:14:04.488Z,5.28
2022-11-16T09:16:31.025Z,5.28
2022-11-16T09:18:57.722Z,5.25
2022-11-16T09:21:26.533Z,5.24
2022-11-16T09:23:53.480Z,5.24
2022-11-16T09:26:22.381Z,5.23
2022-11-16T09:28:58.554Z,5.21
2022-11-16T09:31:26.712Z,5.19
2022-11-16T09:33:54.576Z,5.19
2022-11-16T09:36:22.442Z,5.17
2022-11-16T09:41:51.797Z,5.15
2022-11-16T09:44:41.036Z,5.14
2022-11-16T09:47:19.038Z,5.15
2022-11-16T09:49:49.498Z,5.17
2022-11-16T09:52:28.070Z,5.17
2022-11-16T09:54:54.754Z,5.15
2022-11-16T09:57:24.210Z,5.14
2022-11-16T09:59:54.052Z,5.11
2022-11-16T10:02:23.181Z,5.10
2022-11-16T10:05:21.029Z,5.07
2022-11-16T10:07:58.400Z,5.06
2022-11-16T10:10:39.407Z,5.05
2022-11-16T10:13:18.385Z,5.05
2022-11-16T10:16:09.074Z,5.04
2022-11-16T10:19:13.651Z,5.05
2022-11-16T10:21:55.479Z,5.05
2022-11-16T10:24:40.321Z,5.06
2022-11-16T10:27:25.277Z,5.06
2022-11-16T10:29:56.865Z,5.07
2022-11-16T10:32:30.371Z,5.09
2022-11-16T10:35:05.345Z,5.09
2022-11-16T10:37:32.545Z,5.08
2022-11-16T10:40:09.363Z,5.08
2022-11-16T10:42:38.567Z,5.08
2022-11-16T10:45:19.979Z,5.11
2022-11-16T10:47:53.193Z,5.12
2022-11-16T10:50:39.018Z,5.12
2022-11-16T10:53:05.886Z,5.14
2022-11-16T10:55:32.688Z,5.14
2022-11-16T10:58:01.353Z,5.14
2022-11-16T11:00:48.396Z,5.13
2022-11-16T11:03:30.624Z,5.12
2022-11-16T11:05:58.010Z,5.12
2022-11-16T11:08:31.706Z,5.12
2022-11-16T11:11:23.057Z,5.11
2022-11-16T11:14:10.005Z,5.12
2022-11-16T11:16:37.381Z,5.11
2022-11-16T11:19:18.955Z,5.06
2022-11-16T11:21:45.853Z,5.02
2022-11-16T11:24:42.835Z,4.99
2022-11-16T11:27:02.729Z,4.97
2022-11-16T11:29:32.001Z,4.96
2022-11-16T11:32:19.333Z,4.97
2022-11-16T11:34:51.765Z,4.97
2022-11-16T11:37:19.889Z,4.97
2022-11-16T11:39:46.460Z,4.95
2022-11-16T11:42:13.372Z,4.93
2022-11-16T11:44:49.177Z,4.94
2022-11-16T11:50:25.557Z,4.96
2022-11-16T11:53:01.439Z,4.96
2022-11-16T11:55:28.324Z,4.96
2022-11-16T11:57:55.141Z,4.96
2022-11-16T12:00:23.262Z,4.95
2022-11-16T12:03:11.851Z,4.95
2022-11-16T12:06:06.779Z,4.94
2022-11-16T12:08:46.467Z,4.90
2022-11-16T12:11:26.316Z,4.87
2022-11-16T12:14:05.102Z,4.86
2022-11-16T12:16:35.965Z,4.85
2022-11-16T12:19:27.726Z,4.81
2022-11-16T12:21:54.253Z,4.76
2022-11-16T12:24:58.649Z,4.73
2022-11-16T12:27:26.419Z,4.70
2022-11-16T12:30:11.531Z,4.67
2022-11-16T12:32:59.294Z,4.64
2022-11-16T12:35:43.999Z,4.60
2022-11-16T12:38:26.021Z,4.59
2022-11-16T12:41:03.430Z,4.56
2022-11-16T12:43:33.415Z,4.56
2022-11-16T12:46:33.554Z,4.54
2022-11-16T12:49:04.510Z,4.50
2022-11-16T12:51:38.594Z,4.48
2022-11-16T12:54:23.966Z,4.49
2022-11-16T12:57:21.184Z,4.49
2022-11-16T13:00:17.085Z,4.48
2022-11-16T13:02:56.831Z,4.48
2022-11-16T13:05:28.577Z,4.42
2022-11-16T13:08:27.662Z,4.43
2022-11-16T13:25:06.521Z,4.76
2022-11-16T13:28:18.063Z,4.82
2022-11-16T13:30:50.588Z,4.76
2022-11-16T13:33:50.644Z,4.73
2022-11-16T13:36:45.110Z,4.69
2022-11-16T13:39:18.682Z,4.62
2022-11-16T13:42:04.851Z,4.61
2022-11-16T13:44:31.688Z,4.55
2022-11-16T13:47:05.263Z,4.52
2022-11-16T13:49:41.932Z,4.49
2022-11-16T13:52:23.740Z,4.44
2022-11-16T13:54:54.410Z,4.41
2022-11-16T13:57:27.016Z,4.40
2022-11-16T14:00:02.953Z,4.37
2022-11-16T14:02:31.888Z,4.35
2022-11-16T14:05:00.292Z,4.34
2022-11-16T14:07:35.044Z,4.32
2022-11-16T14:10:02.391Z,4.31
2022-11-16T14:12:38.431Z,4.31
2022-11-16T14:15:35.443Z,4.32
2022-11-16T14:18:08.822Z,4.31
2022-11-16T14:20:41.151Z,4.30
2022-11-16T14:23:18.756Z,4.28
2022-11-16T14:25:51.631Z,4.24
2022-11-16T14:28:27.754Z,4.20
2022-11-16T14:31:25.002Z,4.16
2022-11-16T14:33:53.792Z,4.14
2022-11-16T14:36:41.674Z,4.12
2022-11-16T14:39:27.826Z,4.12
2022-11-16T14:41:56.653Z,4.10
2022-11-16T14:44:25.998Z,4.11
2022-11-16T14:46:52.812Z,4.09
2022-11-16T14:49:20.460Z,4.10
2022-11-16T14:51:53.749Z,4.11
2022-11-16T14:54:26.000Z,4.10
2022-11-16T14:57:00.585Z,4.05
2022-11-16T14:59:28.182Z,4.04
2022-11-16T15:01:55.000Z,4.01
2022-11-16T15:04:22.021Z,3.97
2022-11-16T15:06:56.269Z,3.93
2022-11-16T15:09:47.414Z,3.89
2022-11-16T15:12:37.457Z,3.85
2022-11-16T15:15:12.655Z,3.82
2022-11-16T15:17:40.291Z,3.78
2022-11-16T15:20:21.477Z,3.75
2022-11-16T15:22:52.040Z,3.74
2022-11-16T15:25:26.194Z,3.73
2022-11-16T15:27:52.949Z,3.71
2022-11-16T15:30:21.771Z,3.65
2022-11-16T15:32:50.216Z,3.63
2022-11-16T15:35:21.764Z,3.63
2022-11-16T15:37:49.183Z,3.63
2022-11-16T15:40:16.057Z,3.60
2022-11-16T15:42:42.943Z,3.58
2022-11-16T15:45:22.400Z,3.57
2022-11-16T15:47:53.762Z,3.55
2022-11-16T15:50:23.255Z,3.53
2022-11-16T15:52:57.116Z,3.52
2022-11-16T15:55:33.015Z,3.52
2022-11-16T15:58:06.748Z,3.50
2022-11-16T16:00:35.314Z,3.49
2022-11-16T16:03:17.784Z,3.47
2022-11-16T16:05:44.630Z,3.45
2022-11-16T16:08:32.515Z,3.43
2022-11-16T16:11:10.454Z,3.43
2022-11-16T16:13:42.144Z,3.41
2022-11-16T16:16:26.404Z,3.39
2022-11-16T16:18:53.745Z,3.37
2022-11-16T16:21:20.573Z,3.37
2022-11-16T16:23:51.930Z,3.36
2022-11-16T16:26:18.757Z,3.35
2022-11-16T16:28:45.454Z,3.35
2022-11-16T16:31:12.490Z,3.34
2022-11-16T16:33:39.254Z,3.32
2022-11-16T16:36:06.388Z,3.30
2022-11-16T16:38:33.175Z,3.27
2022-11-16T16:41:00.560Z,3.23
2022-11-16T16:43:27.501Z,3.19
2022-11-16T16:45:54.241Z,3.16
2022-11-16T16:48:20.956Z,3.12
2022-11-16T16:50:47.734Z,3.10
2022-11-16T16:53:14.438Z,3.08
2022-11-16T16:55:41.821Z,3.08
2022-11-16T16:58:11.646Z,3.06
2022-11-16T17:00:38.409Z,3.06
2022-11-16T17:03:05.148Z,3.03
2022-11-16T17:05:34.000Z,2.97
2022-11-16T17:08:00.919Z,2.91
2022-11-16T17:10:27.667Z,2.85
2022-11-16T17:12:55.351Z,2.78
2022-11-16T17:15:22.413Z,2.71
2022-11-16T17:17:49.126Z,2.65
2022-11-16T17:20:16.458Z,2.63
2022-11-16T17:22:43.493Z,2.59
2022-11-16T17:25:11.479Z,2.55
2022-11-16T17:27:38.299Z,2.52
2022-11-16T17:30:05.126Z,2.47
2022-11-16T17:32:32.288Z,2.45
2022-11-16T17:34:59.066Z,2.42
2022-11-16T17:37:25.791Z,2.42
2022-11-16T17:39:52.561Z,2.42
2022-11-16T17:42:19.315Z,2.42
2022-11-16T17:44:46.046Z,2.41
2022-11-16T17:47:12.792Z,2.41
2022-11-16T17:49:39.464Z,2.38
2022-11-16T17:52:06.387Z,2.35
2022-11-16T17:54:33.078Z,2.31
2022-11-16T17:56:59.791Z,2.29
2022-11-16T17:59:29.548Z,2.26
2022-11-16T18:01:58.062Z,2.23
2022-11-16T18:04:25.138Z,2.19
2022-11-16T18:06:52.196Z,2.17
2022-11-16T18:09:19.066Z,2.14
2022-11-16T18:11:45.789Z,2.12
2022-11-16T18:14:12.561Z,2.05
2022-11-16T18:16:42.389Z,2.04
2022-11-16T18:19:10.050Z,2.00
2022-11-16T18:21:40.616Z,1.97
2022-11-16T18:24:07.812Z,1.96
2022-11-16T18:26:34.515Z,1.91
2022-11-16T18:29:01.291Z,1.95
2022-11-16T18:31:29.757Z,1.95
2022-11-16T18:33:56.605Z,1.94
2022-11-16T18:36:23.262Z,1.94
2022-11-16T18:38:50.256Z,1.92
2022-11-16T18:41:21.324Z,1.91
2022-11-16T18:43:55.557Z,1.89
2022-11-16T18:46:26.853Z,1.89
2022-11-16T18:48:53.643Z,1.88
2022-11-16T18:51:20.864Z,1.83
2022-11-16T18:53:47.671Z,1.82
2022-11-16T18:56:14.500Z,1.82
2022-11-16T18:58:51.373Z,1.81
2022-11-16T19:01:21.212Z,1.76
2022-11-16T19:03:48.049Z,1.71
2022-11-16T19:06:15.646Z,1.74
2022-11-16T19:08:42.873Z,1.71
2022-11-16T19:11:11.595Z,1.65
2022-11-16T19:13:39.214Z,1.67
2022-11-16T19:16:06.814Z,1.65
2022-11-16T19:18:33.592Z,1.62
2022-11-16T19:21:10.929Z,1.60
2022-11-16T19:23:38.202Z,1.56
2022-11-16T19:26:05.250Z,1.53
2022-11-16T19:28:41.869Z,1.51
2022-11-16T19:31:28.618Z,1.47
2022-11-16T19:34:00.088Z,1.41
2022-11-16T19:36:27.564Z,1.37
2022-11-16T19:38:54.393Z,1.34
2022-11-16T19:41:22.550Z,1.31
2022-11-16T19:43:52.878Z,1.31
2022-11-16T19:46:21.601Z,1.28
2022-11-16T19:48:49.508Z,1.28
2022-11-16T19:51:17.928Z,1.28
2022-11-16T19:53:44.668Z,1.25
2022-11-16T19:56:12.509Z,1.27
2022-11-16T19:58:39.510Z,1.26
2022-11-16T20:01:23.026Z,1.24
2022-11-16T20:03:50.043Z,1.18
2022-11-16T20:06:18.563Z,1.22
2022-11-16T20:08:49.951Z,1.22
2022-11-16T20:11:17.569Z,1.24
2022-11-16T20:13:44.404Z,1.24
2022-11-16T20:16:11.481Z,1.24
2022-11-16T20:18:38.721Z,1.22
2022-11-16T20:21:05.949Z,1.19
2022-11-16T20:23:37.599Z,1.16
2022-11-16T20:26:08.778Z,1.17
2022-11-16T20:28:36.594Z,1.17
2022-11-16T20:31:07.213Z,1.18
2022-11-16T20:33:34.654Z,1.18
2022-11-16T20:36:06.722Z,1.20
2022-11-16T20:38:34.254Z,1.22
2022-11-16T20:41:30.687Z,1.23
2022-11-16T20:43:58.212Z,1.23
2022-11-16T20:46:26.371Z,1.23
2022-11-16T20:48:53.449Z,1.24
2022-11-16T20:51:20.445Z,1.24
2022-11-16T20:53:47.984Z,1.24
2022-11-16T20:56:15.799Z,1.23
2022-11-16T20:58:42.557Z,1.22
2022-11-16T21:01:11.073Z,1.23
2022-11-16T21:03:38.739Z,1.24
2022-11-16T21:06:08.811Z,1.26
2022-11-16T21:08:36.262Z,1.28
2022-11-16T21:11:03.429Z,1.31
2022-11-16T21:13:48.855Z,1.32
2022-11-16T21:16:16.397Z,1.31
2022-11-16T21:18:43.178Z,1.30
2022-11-16T21:21:13.383Z,1.30
2022-11-16T21:23:43.131Z,1.29
2022-11-16T21:26:11.766Z,1.28
2022-11-16T21:28:38.847Z,1.27
2022-11-16T21:31:11.375Z,1.27
2022-11-16T21:33:38.298Z,1.27
2022-11-16T21:36:11.115Z,1.28
2022-11-16T21:38:38.680Z,1.28
2022-11-16T21:41:06.412Z,1.29
2022-11-16T21:43:35.450Z,1.29
2022-11-16T21:46:03.736Z,1.27
2022-11-16T21:48:34.181Z,1.24
2022-11-16T21:51:02.012Z,1.24
2022-11-16T21:53:28.974Z,1.25
2022-11-16T21:55:55.735Z,1.25
2022-11-16T21:58:22.658Z,1.25
2022-11-16T22:00:49.380Z,1.25
2022-11-16T22:03:16.146Z,1.25
2022-11-16T22:06:01.352Z,1.26
2022-11-16T22:08:28.228Z,1.26
2022-11-16T22:10:54.876Z,1.26
2022-11-16T22:13:21.734Z,1.27
2022-11-16T22:15:48.373Z,1.27
2022-11-16T22:18:15.127Z,1.26
2022-11-16T22:20:41.862Z,1.23
2022-11-16T22:23:08.610Z,1.20
2022-11-16T22:25:36.492Z,1.17
2022-11-16T22:28:20.122Z,1.15
2022-11-16T22:30:51.770Z,1.13
2022-11-16T22:33:19.197Z,1.10
2022-11-16T22:35:46.697Z,1.07
2022-11-16T22:38:13.432Z,1.04
2022-11-16T22:40:40.164Z,1.01
2022-11-16T22:43:06.884Z,0.99
2022-11-16T22:45:33.680Z,0.93
2022-11-16T22:48:00.332Z,0.96
2022-11-16T22:50:27.261Z,0.94
2022-11-16T22:52:53.992Z,0.92
2022-11-16T22:55:20.841Z,0.89
2022-11-16T22:57:47.457Z,0.88
2022-11-16T23:00:14.783Z,0.85
2022-11-16T23:02:41.674Z,0.81
2022-11-16T23:05:08.520Z,0.84
2022-11-16T23:07:35.458Z,0.82
2022-11-16T23:10:02.274Z,0.81
2022-11-16T23:12:47.877Z,0.81
2022-11-16T23:15:33.510Z,0.80
2022-11-16T23:18:00.253Z,0.77
2022-11-16T23:20:45.758Z,0.75
2022-11-16T23:23:36.443Z,0.75
2022-11-16T23:26:23.765Z,0.73
2022-11-16T23:28:50.492Z,0.70
2022-11-16T23:31:17.223Z,0.68
2022-11-16T23:33:43.941Z,0.67
2022-11-16T23:36:14.045Z,0.65
2022-11-16T23:38:40.861Z,0.64
2022-11-16T23:41:30.691Z,0.61
2022-11-16T23:44:00.363Z,0.60
2022-11-16T23:46:28.237Z,0.57
2022-11-16T23:48:55.053Z,0.54
2022-11-16T23:51:23.363Z,0.51
2022-11-16T23:53:53.381Z,0.50
2022-11-16T23:56:20.615Z,0.50
2022-11-16T23:58:47.531Z,0.49
